createdAt,value
2023-04-08T00:00:45.000Z,10.70
2023-04-08T00:03:11.547Z,10.47
2023-04-08T00:05:38.293Z,12.17
2023-04-08T00:08:05.601Z,11.67
2023-04-08T00:10:32.014Z,11.47
2023-04-08T00:12:58.397Z,10.80
2023-04-08T00:15:24.798Z,11.77
2023-04-08T00:17:51.351Z,12.60
2023-04-08T00:20:17.821Z,12.27
2023-04-08T00:22:44.201Z,11.23
2023-04-08T00:25:10.779Z,11.60
2023-04-08T00:27:37.185Z,12.30
2023-04-08T00:30:03.977Z,9.77
2023-04-08T00:32:30.387Z,10.30
2023-04-08T00:34:56.826Z,13.80
2023-04-08T00:37:23.562Z,10.73
2023-04-08T00:39:49.915Z,11.67
2023-04-08T00:42:17.675Z,11.50
2023-04-08T00:44:44.088Z,11.40
2023-04-08T00:47:14.754Z,12.23
2023-04-08T00:49:41.917Z,14.93
2023-04-08T00:52:08.427Z,13.50
2023-04-08T00:54:36.690Z,11.47
2023-04-08T00:57:04.615Z,10.20
2023-04-08T00:59:31.896Z,12.77
2023-04-08T01:02:15.651Z,12.90
2023-04-08T01:04:55.927Z,13.47
2023-04-08T01:07:27.118Z,12.03
2023-04-08T01:09:57.264Z,12.13
2023-04-08T01:12:29.850Z,12.93
2023-04-08T01:15:04.754Z,11.30
2023-04-08T01:17:32.684Z,11.10
2023-04-08T01:20:01.677Z,12.87
2023-04-08T01:22:43.808Z,13.20
2023-04-08T01:25:19.236Z,12.70
2023-04-08T01:27:48.377Z,14.27
2023-04-08T01:30:17.375Z,12.07
2023-04-08T01:32:45.251Z,13.37
2023-04-08T01:35:12.255Z,12.17
2023-04-08T01:37:40.075Z,10.77
2023-04-08T01:40:08.906Z,11.33
2023-04-08T01:42:36.720Z,11.10
2023-04-08T01:45:04.170Z,10.77
2023-04-08T01:47:31.494Z,10.90
2023-04-08T01:49:59.764Z,11.87
2023-04-08T01:52:28.589Z,12.47
2023-04-08T01:54:55.055Z,11.47
2023-04-08T01:57:24.607Z,11.97
2023-04-08T01:59:53.504Z,11.73
2023-04-08T02:02:26.566Z,12.03
2023-04-08T02:04:55.926Z,11.60
2023-04-08T02:07:22.347Z,10.07
2023-04-08T02:09:48.710Z,11.60
2023-04-08T02:12:15.337Z,9.27
2023-04-08T02:14:41.865Z,13.27
2023-04-08T02:17:12.513Z,11.83
2023-04-08T02:19:48.692Z,9.60
2023-04-08T02:22:26.465Z,11.50
2023-04-08T02:24:53.185Z,10.80
2023-04-08T02:27:20.538Z,12.70
2023-04-08T02:29:49.304Z,11.00
2023-04-08T02:32:16.927Z,11.73
2023-04-08T02:34:43.619Z,10.00
2023-04-08T02:37:10.369Z,9.37
2023-04-08T02:39:36.790Z,12.70
2023-04-08T02:42:04.940Z,10.40
2023-04-08T02:44:31.456Z,10.90
2023-04-08T02:46:57.830Z,10.97
2023-04-08T02:49:24.242Z,10.37
2023-04-08T02:51:50.660Z,10.87
2023-04-08T02:54:17.048Z,12.73
2023-04-08T02:56:43.792Z,10.50
2023-04-08T02:59:10.388Z,13.03
2023-04-08T03:01:37.171Z,11.70
2023-04-08T03:04:03.855Z,13.13
2023-04-08T03:06:31.833Z,11.10
2023-04-08T03:08:58.204Z,11.67
2023-04-08T03:11:24.671Z,11.90
2023-04-08T03:13:51.193Z,15.00
2023-04-08T03:16:17.902Z,13.13
2023-04-08T03:18:44.261Z,11.53
2023-04-08T03:21:10.686Z,10.90
2023-04-08T03:23:37.054Z,10.50
2023-04-08T03:26:03.778Z,12.70
2023-04-08T03:28:30.282Z,12.37
2023-04-08T03:30:56.839Z,12.70
2023-04-08T03:33:23.255Z,15.17
2023-04-08T03:35:49.708Z,12.60
2023-04-08T03:38:16.773Z,11.73
2023-04-08T03:40:43.143Z,12.70
2023-04-08T03:43:11.654Z,13.20
2023-04-08T03:45:38.100Z,14.17
2023-04-08T03:48:04.715Z,13.20
2023-04-08T03:50:31.081Z,13.10
2023-04-08T03:52:57.470Z,13.67
2023-04-08T03:55:23.902Z,13.43
2023-04-08T03:57:50.744Z,14.40
2023-04-08T04:00:17.130Z,12.47
2023-04-08T04:02:43.850Z,11.93
2023-04-08T04:05:10.309Z,13.47
2023-04-08T04:07:37.091Z,15.27
2023-04-08T04:10:03.737Z,13.20
2023-04-08T04:12:30.675Z,12.90
2023-04-08T04:14:57.081Z,13.37
2023-04-08T04:17:23.479Z,13.20
2023-04-08T04:19:49.855Z,13.67
2023-04-08T04:22:16.269Z,13.37
2023-04-08T04:24:47.041Z,14.13
2023-04-08T04:27:13.431Z,17.47
2023-04-08T04:29:39.785Z,14.70
2023-04-08T04:32:07.121Z,12.60
2023-04-08T04:34:33.478Z,14.00
2023-04-08T04:36:59.855Z,11.63
2023-04-08T04:39:26.378Z,12.60
2023-04-08T04:41:52.763Z,15.30
2023-04-08T04:44:19.724Z,13.57
2023-04-08T04:46:46.233Z,12.90
2023-04-08T04:49:12.691Z,12.40
2023-04-08T04:51:39.068Z,12.37
2023-04-08T04:54:05.485Z,13.77
2023-04-08T04:56:32.080Z,12.30
2023-04-08T04:58:58.483Z,15.43
2023-04-08T05:01:24.921Z,15.13
2023-04-08T05:03:51.823Z,11.33
2023-04-08T05:06:18.199Z,14.57
2023-04-08T05:08:45.042Z,13.03
2023-04-08T05:11:11.581Z,12.87
2023-04-08T05:13:38.307Z,13.87
2023-04-08T05:16:04.911Z,13.60
2023-04-08T05:18:31.321Z,12.93
2023-04-08T05:20:58.603Z,12.00
2023-04-08T05:23:25.488Z,12.60
2023-04-08T05:25:51.938Z,17.50
2023-04-08T05:28:18.840Z,13.47
2023-04-08T05:30:52.148Z,15.70
2023-04-08T05:33:19.564Z,13.50
2023-04-08T05:35:46.667Z,12.70
2023-04-08T05:38:13.275Z,12.77
2023-04-08T05:40:39.695Z,14.07
2023-04-08T05:43:06.344Z,14.43
2023-04-08T05:45:32.741Z,14.30
2023-04-08T05:47:59.577Z,15.67
2023-04-08T05:50:25.984Z,16.13
2023-04-08T05:52:52.950Z,15.93
2023-04-08T05:55:19.357Z,18.13
2023-04-08T05:57:45.928Z,15.20
2023-04-08T06:00:13.192Z,15.10
2023-04-08T06:02:39.738Z,14.17
2023-04-08T06:05:06.653Z,14.53
2023-04-08T06:07:33.996Z,16.67
2023-04-08T06:10:00.557Z,14.80
2023-04-08T06:12:26.921Z,15.10
2023-04-08T06:14:56.523Z,16.00
2023-04-08T06:17:23.144Z,17.13
2023-04-08T06:19:49.746Z,15.23
2023-04-08T06:22:16.388Z,16.07
2023-04-08T06:24:42.781Z,15.30
2023-04-08T06:27:09.328Z,15.83
2023-04-08T06:29:35.898Z,16.47
2023-04-08T06:32:02.443Z,17.13
2023-04-08T06:34:29.161Z,14.93
2023-04-08T06:36:55.811Z,13.33
2023-04-08T06:39:22.245Z,16.70
2023-04-08T06:41:48.702Z,16.33
2023-04-08T06:44:16.043Z,15.60
2023-04-08T06:46:42.431Z,15.60
2023-04-08T06:49:08.985Z,20.33
2023-04-08T06:51:35.460Z,16.93
2023-04-08T06:54:01.964Z,19.30
2023-04-08T06:56:28.377Z,16.77
2023-04-08T06:58:54.848Z,15.07
2023-04-08T07:01:21.343Z,19.43
2023-04-08T07:03:47.908Z,17.60
2023-04-08T07:06:14.513Z,14.53
2023-04-08T07:08:41.182Z,19.13
2023-04-08T07:11:07.791Z,15.57
2023-04-08T07:13:34.313Z,17.27
2023-04-08T07:16:01.767Z,17.97
2023-04-08T07:18:28.189Z,14.60
2023-04-08T07:20:55.044Z,18.90
2023-04-08T07:23:21.745Z,16.17
2023-04-08T07:25:48.266Z,15.77
2023-04-08T07:28:14.730Z,17.37
2023-04-08T07:30:41.146Z,15.73
2023-04-08T07:33:07.632Z,16.80
2023-04-08T07:35:34.375Z,16.33
2023-04-08T07:38:01.054Z,19.33
2023-04-08T07:40:27.578Z,14.03
2023-04-08T07:42:54.299Z,18.77
2023-04-08T07:45:21.125Z,17.37
2023-04-08T07:47:47.654Z,14.90
2023-04-08T07:50:14.147Z,16.67
2023-04-08T07:52:40.536Z,16.97
2023-04-08T07:55:07.411Z,16.70
2023-04-08T07:57:33.924Z,16.23
2023-04-08T08:00:00.393Z,13.87
2023-04-08T08:02:26.926Z,12.50
2023-04-08T08:04:53.463Z,13.87
2023-04-08T08:07:19.870Z,11.17
2023-04-08T08:09:46.548Z,13.77
2023-04-08T08:12:12.961Z,14.37
2023-04-08T08:14:39.673Z,14.57
2023-04-08T08:17:06.040Z,15.60
2023-04-08T08:19:32.860Z,12.60
2023-04-08T08:21:59.250Z,14.50
2023-04-08T08:24:26.220Z,13.47
2023-04-08T08:26:52.619Z,11.67
2023-04-08T08:29:19.491Z,13.40
2023-04-08T08:31:46.240Z,13.90
2023-04-08T08:34:12.788Z,14.43
2023-04-08T08:36:39.178Z,11.93
2023-04-08T08:39:05.601Z,14.57
2023-04-08T08:41:36.831Z,15.73
2023-04-08T08:44:05.761Z,17.57
2023-04-08T08:46:32.342Z,13.33
2023-04-08T08:48:59.058Z,15.83
2023-04-08T08:51:26.253Z,12.03
2023-04-08T08:53:52.796Z,15.37
2023-04-08T08:56:19.389Z,15.40
2023-04-08T08:58:47.541Z,14.33
2023-04-08T09:01:46.695Z,16.17
2023-04-08T09:04:22.621Z,14.30
2023-04-08T09:06:51.572Z,15.47
2023-04-08T09:09:18.240Z,14.30
2023-04-08T09:11:47.137Z,13.70
2023-04-08T09:14:22.864Z,12.67
2023-04-08T09:16:50.252Z,13.10
2023-04-08T09:19:16.980Z,13.03
2023-04-08T09:21:43.633Z,13.90
2023-04-08T09:24:28.754Z,14.60
2023-04-08T09:26:56.522Z,11.30
2023-04-08T09:29:29.877Z,12.73
2023-04-08T09:32:00.196Z,11.73
2023-04-08T09:34:28.049Z,13.40
2023-04-08T09:36:55.724Z,17.77
2023-04-08T09:39:22.574Z,14.13
2023-04-08T09:41:50.982Z,15.93
2023-04-08T09:44:19.884Z,14.63
2023-04-08T09:46:49.215Z,14.07
2023-04-08T09:49:52.150Z,15.13
2023-04-08T09:52:24.785Z,13.93
2023-04-08T09:55:04.594Z,15.07
2023-04-08T09:57:41.609Z,15.60
2023-04-08T10:00:14.062Z,17.07
2023-04-08T10:03:04.732Z,17.70
2023-04-08T10:05:31.975Z,13.20
2023-04-08T10:07:58.964Z,16.67
2023-04-08T10:10:27.075Z,16.50
2023-04-08T10:12:53.778Z,19.20
2023-04-08T10:15:37.775Z,16.03
2023-04-08T10:18:06.928Z,15.03
2023-04-08T10:20:37.135Z,13.20
2023-04-08T10:23:11.480Z,17.07
2023-04-08T10:25:45.481Z,16.60
2023-04-08T10:28:12.006Z,16.83
2023-04-08T10:30:42.780Z,17.20
2023-04-08T10:33:15.531Z,15.30
2023-04-08T10:35:46.266Z,17.80
2023-04-08T10:38:14.095Z,16.57
2023-04-08T10:40:42.558Z,16.33
2023-04-08T10:43:11.218Z,16.53
2023-04-08T10:45:38.369Z,13.70
2023-04-08T10:48:25.169Z,15.77
2023-04-08T10:51:03.650Z,12.57
2023-04-08T10:53:33.779Z,16.03
2023-04-08T10:56:15.417Z,13.27
2023-04-08T10:58:59.187Z,16.90
2023-04-08T11:01:26.483Z,11.97
2023-04-08T11:03:53.916Z,13.27
2023-04-08T11:06:20.540Z,12.67
2023-04-08T11:08:47.247Z,11.23
2023-04-08T11:11:14.673Z,13.10
2023-04-08T11:13:51.177Z,14.13
2023-04-08T11:16:21.393Z,14.07
2023-04-08T11:18:49.734Z,13.70
2023-04-08T11:21:17.556Z,18.47
2023-04-08T11:23:43.999Z,13.43
2023-04-08T11:26:11.359Z,12.13
2023-04-08T11:28:39.325Z,13.23
2023-04-08T11:31:06.205Z,10.27
2023-04-08T11:33:33.117Z,11.27
2023-04-08T11:36:02.200Z,14.47
2023-04-08T11:38:29.246Z,12.17
2023-04-08T11:40:58.922Z,11.63
2023-04-08T11:43:30.160Z,11.57
2023-04-08T11:45:59.933Z,13.67
2023-04-08T11:48:26.790Z,11.87
2023-04-08T11:51:04.578Z,11.83
2023-04-08T11:53:31.438Z,10.33
2023-04-08T11:55:57.880Z,9.47
2023-04-08T11:58:24.324Z,11.50
2023-04-08T12:00:50.850Z,10.33
2023-04-08T12:03:17.937Z,10.53
2023-04-08T12:05:44.422Z,10.37
2023-04-08T12:08:11.261Z,10.00
2023-04-08T12:10:37.814Z,10.43
2023-04-08T12:13:04.192Z,9.07
2023-04-08T12:15:30.739Z,10.00
2023-04-08T12:17:57.895Z,8.40
2023-04-08T12:20:24.457Z,8.33
2023-04-08T12:22:50.990Z,9.20
2023-04-08T12:25:17.377Z,9.13
2023-04-08T12:27:43.780Z,9.13
2023-04-08T12:30:10.778Z,8.80
2023-04-08T12:32:37.518Z,10.23
2023-04-08T12:35:04.297Z,8.23
2023-04-08T12:37:30.812Z,8.33
2023-04-08T12:39:57.220Z,8.43
2023-04-08T12:42:23.804Z,7.40
2023-04-08T12:44:50.227Z,6.67
2023-04-08T12:47:17.312Z,7.77
2023-04-08T12:49:49.549Z,8.40
2023-04-08T12:52:17.168Z,9.13
2023-04-08T12:54:43.866Z,7.33
2023-04-08T12:57:10.513Z,8.13
2023-04-08T12:59:38.805Z,8.50
2023-04-08T13:02:05.363Z,8.77
2023-04-08T13:04:31.807Z,7.13
2023-04-08T13:06:59.529Z,8.27
2023-04-08T13:09:26.445Z,13.50
2023-04-08T13:11:52.965Z,8.43
2023-04-08T13:14:19.394Z,7.07
2023-04-08T13:16:46.265Z,7.23
2023-04-08T13:19:13.173Z,7.87
2023-04-08T13:21:39.542Z,7.87
2023-04-08T13:24:06.401Z,6.00
2023-04-08T13:26:32.784Z,7.30
2023-04-08T13:28:59.586Z,7.67
2023-04-08T13:31:26.488Z,7.07
2023-04-08T13:33:55.270Z,7.50
2023-04-08T13:36:23.530Z,7.67
2023-04-08T13:38:50.898Z,6.77
2023-04-08T13:41:17.520Z,7.50
2023-04-08T13:43:43.938Z,8.23
2023-04-08T13:46:10.365Z,7.97
2023-04-08T13:48:37.151Z,6.37
2023-04-08T13:51:03.684Z,7.27
2023-04-08T13:53:30.451Z,6.57
2023-04-08T13:55:58.925Z,8.00
2023-04-08T13:58:26.484Z,6.07
2023-04-08T14:00:53.141Z,5.97
2023-04-08T14:03:19.625Z,7.53
2023-04-08T14:05:46.710Z,9.00
2023-04-08T14:08:13.880Z,6.77
2023-04-08T14:10:41.978Z,6.30
2023-04-08T14:13:08.818Z,7.10
2023-04-08T14:15:35.443Z,6.73
2023-04-08T14:18:01.934Z,5.90
2023-04-08T14:20:28.576Z,6.27
2023-04-08T14:22:56.588Z,6.63
2023-04-08T14:25:23.717Z,6.60
2023-04-08T14:27:58.091Z,6.10
2023-04-08T14:30:25.244Z,5.77
2023-04-08T14:32:51.672Z,6.57
2023-04-08T14:35:18.438Z,7.00
2023-04-08T14:37:44.819Z,6.70
2023-04-08T14:40:11.615Z,7.27
2023-04-08T14:42:38.474Z,8.17
2023-04-08T14:45:05.200Z,7.43
2023-04-08T14:47:31.636Z,7.17
2023-04-08T14:49:58.067Z,7.40
2023-04-08T14:52:24.866Z,7.80
2023-04-08T14:54:52.448Z,8.67
2023-04-08T14:57:18.854Z,8.20
2023-04-08T14:59:45.792Z,7.93
2023-04-08T15:02:12.542Z,7.53
2023-04-08T15:04:39.420Z,6.70
2023-04-08T15:07:06.238Z,6.20
2023-04-08T15:09:32.718Z,6.73
2023-04-08T15:11:59.914Z,6.90
2023-04-08T15:14:26.448Z,7.53
2023-04-08T15:16:52.993Z,6.77
2023-04-08T15:19:20.184Z,7.63
2023-04-08T15:21:47.337Z,9.30
2023-04-08T15:24:14.027Z,8.07
2023-04-08T15:26:41.005Z,10.47
2023-04-08T15:29:07.736Z,6.80
2023-04-08T15:31:35.015Z,6.53
2023-04-08T15:34:02.698Z,7.30
2023-04-08T15:36:32.860Z,8.13
2023-04-08T15:38:59.267Z,8.00
2023-04-08T15:41:26.216Z,6.43
2023-04-08T15:43:53.188Z,6.53
2023-04-08T15:46:23.267Z,7.47
2023-04-08T15:48:50.702Z,6.87
2023-04-08T15:51:17.920Z,7.57
2023-04-08T15:53:44.376Z,7.00
2023-04-08T15:56:15.207Z,7.67
2023-04-08T15:58:42.424Z,8.33
2023-04-08T16:01:08.849Z,6.70
2023-04-08T16:03:35.378Z,7.33
2023-04-08T16:06:02.045Z,8.40
2023-04-08T16:08:29.006Z,8.67
2023-04-08T16:11:03.685Z,7.90
2023-04-08T16:13:30.955Z,7.80
2023-04-08T16:15:58.605Z,8.03
2023-04-08T16:18:25.840Z,8.57
2023-04-08T16:20:53.202Z,9.03
2023-04-08T16:23:19.904Z,8.30
2023-04-08T16:25:46.658Z,8.07
2023-04-08T16:28:13.389Z,7.80
2023-04-08T16:30:43.491Z,9.20
2023-04-08T16:33:11.245Z,8.70
2023-04-08T16:35:37.775Z,8.93
2023-04-08T16:38:04.604Z,9.90
2023-04-08T16:40:33.166Z,12.27
2023-04-08T16:43:00.761Z,9.47
2023-04-08T16:45:30.916Z,8.93
2023-04-08T16:47:57.478Z,8.20
2023-04-08T16:50:24.437Z,8.57
2023-04-08T16:52:50.831Z,9.13
2023-04-08T16:55:17.891Z,8.93
2023-04-08T16:57:44.280Z,8.83
2023-04-08T17:00:11.338Z,8.70
2023-04-08T17:02:37.904Z,8.93
2023-04-08T17:05:06.254Z,9.10
2023-04-08T17:07:32.884Z,8.43
2023-04-08T17:09:59.407Z,8.03
2023-04-08T17:12:25.974Z,8.80
2023-04-08T17:14:52.606Z,8.23
2023-04-08T17:17:19.329Z,9.13
2023-04-08T17:19:45.686Z,7.80
2023-04-08T17:22:12.077Z,9.20
2023-04-08T17:24:38.460Z,8.03
2023-04-08T17:27:05.477Z,7.80
2023-04-08T17:29:31.941Z,8.70
2023-04-08T17:31:58.574Z,9.17
2023-04-08T17:34:26.291Z,10.03
2023-04-08T17:36:52.723Z,9.83
2023-04-08T17:39:19.107Z,9.87
2023-04-08T17:41:46.184Z,9.73
2023-04-08T17:44:12.659Z,7.97
2023-04-08T17:46:39.211Z,7.60
2023-04-08T17:49:05.652Z,7.67
2023-04-08T17:51:33.157Z,7.87
2023-04-08T17:53:59.627Z,6.33
2023-04-08T17:56:27.760Z,7.03
2023-04-08T17:58:54.226Z,7.47
2023-04-08T18:01:22.909Z,7.90
2023-04-08T18:03:52.319Z,6.80
2023-04-08T18:06:19.337Z,7.10
2023-04-08T18:08:45.846Z,6.90
2023-04-08T18:11:12.283Z,7.37
2023-04-08T18:13:38.685Z,6.97
2023-04-08T18:16:06.545Z,8.67
2023-04-08T18:18:32.907Z,14.20
2023-04-08T18:20:59.837Z,6.00
2023-04-08T18:23:26.212Z,6.47
2023-04-08T18:25:52.588Z,6.57
2023-04-08T18:28:19.010Z,6.90
2023-04-08T18:30:45.646Z,8.67
2023-04-08T18:33:12.087Z,7.43
2023-04-08T18:35:38.484Z,8.67
2023-04-08T18:38:05.245Z,7.43
2023-04-08T18:40:31.648Z,8.03
2023-04-08T18:43:02.593Z,7.83
2023-04-08T18:45:29.464Z,7.73
2023-04-08T18:47:56.273Z,8.00
2023-04-08T18:50:23.352Z,7.00
2023-04-08T18:52:50.068Z,8.03
2023-04-08T18:55:16.675Z,7.17
2023-04-08T18:57:43.121Z,7.10
2023-04-08T19:00:09.716Z,7.37
2023-04-08T19:02:36.471Z,7.60
2023-04-08T19:05:02.992Z,7.73
2023-04-08T19:07:29.747Z,7.60
2023-04-08T19:09:59.700Z,8.20
2023-04-08T19:12:27.010Z,8.47
2023-04-08T19:14:54.238Z,7.57
2023-04-08T19:17:20.849Z,7.63
2023-04-08T19:19:47.290Z,8.20
2023-04-08T19:22:13.698Z,7.57
2023-04-08T19:24:40.166Z,7.67
2023-04-08T19:27:06.549Z,7.60
2023-04-08T19:29:33.968Z,8.67
2023-04-08T19:32:00.828Z,8.37
2023-04-08T19:34:27.213Z,7.03
2023-04-08T19:36:54.516Z,7.53
2023-04-08T19:39:21.052Z,7.90
2023-04-08T19:41:47.647Z,8.07
2023-04-08T19:44:14.104Z,8.23
2023-04-08T19:46:40.709Z,7.70
2023-04-08T19:49:07.412Z,7.73
2023-04-08T19:51:34.159Z,7.93
2023-04-08T19:54:00.597Z,8.83
2023-04-08T19:56:27.824Z,8.50
2023-04-08T19:58:54.383Z,8.90
2023-04-08T20:01:21.503Z,8.83
2023-04-08T20:03:50.244Z,8.80
2023-04-08T20:06:19.898Z,8.93
2023-04-08T20:08:46.409Z,9.33
2023-04-08T20:11:12.951Z,8.40
2023-04-08T20:13:40.030Z,7.43
2023-04-08T20:16:07.407Z,7.63
2023-04-08T20:18:34.251Z,8.20
2023-04-08T20:21:00.998Z,8.20
2023-04-08T20:23:27.388Z,8.10
2023-04-08T20:25:53.899Z,7.00
2023-04-08T20:28:20.717Z,7.67
2023-04-08T20:30:47.998Z,8.07
2023-04-08T20:33:14.398Z,7.43
2023-04-08T20:35:40.879Z,8.03
2023-04-08T20:38:07.276Z,7.80
2023-04-08T20:40:33.650Z,8.57
2023-04-08T20:43:00.039Z,8.70
2023-04-08T20:45:27.131Z,9.53
2023-04-08T20:47:54.528Z,9.37
2023-04-08T20:50:20.919Z,8.03
2023-04-08T20:52:47.836Z,7.90
2023-04-08T20:55:14.303Z,7.97
2023-04-08T20:57:42.095Z,9.20
2023-04-08T21:00:09.492Z,9.00
2023-04-08T21:02:36.809Z,8.40
2023-04-08T21:05:03.513Z,8.67
2023-04-08T21:07:30.470Z,10.80
2023-04-08T21:09:56.967Z,10.43
2023-04-08T21:12:23.676Z,10.23
2023-04-08T21:14:50.872Z,10.73
2023-04-08T21:17:17.841Z,9.10
2023-04-08T21:19:44.325Z,8.20
2023-04-08T21:22:10.892Z,10.90
2023-04-08T21:24:38.060Z,11.53
2023-04-08T21:27:04.521Z,10.37
2023-04-08T21:29:31.001Z,10.23
2023-04-08T21:31:57.452Z,9.63
2023-04-08T21:34:23.967Z,9.53
2023-04-08T21:36:50.360Z,9.73
2023-04-08T21:39:16.867Z,10.60
2023-04-08T21:41:43.410Z,12.00
2023-04-08T21:44:10.421Z,10.50
2023-04-08T21:46:36.857Z,11.50
2023-04-08T21:49:03.424Z,10.37
2023-04-08T21:51:29.813Z,10.33
2023-04-08T21:53:56.252Z,11.37
2023-04-08T21:56:24.516Z,10.60
2023-04-08T21:58:51.061Z,11.10
2023-04-08T22:01:17.746Z,10.47
2023-04-08T22:03:44.963Z,11.53
2023-04-08T22:06:19.221Z,11.33
2023-04-08T22:08:52.251Z,10.13
2023-04-08T22:11:19.062Z,10.13
2023-04-08T22:13:45.837Z,11.37
2023-04-08T22:16:12.256Z,12.07
2023-04-08T22:18:39.003Z,12.37
2023-04-08T22:21:05.985Z,11.23
2023-04-08T22:23:32.412Z,12.73
2023-04-08T22:25:58.831Z,14.27
2023-04-08T22:28:25.531Z,11.93
2023-04-08T22:30:54.883Z,12.03
2023-04-08T22:33:22.106Z,12.83
2023-04-08T22:35:48.525Z,12.50
2023-04-08T22:38:14.923Z,13.50
2023-04-08T22:40:41.314Z,13.87
2023-04-08T22:43:08.002Z,13.27
2023-04-08T22:45:36.603Z,12.87
2023-04-08T22:48:03.289Z,13.73
2023-04-08T22:50:29.718Z,13.43
2023-04-08T22:52:56.097Z,11.93
2023-04-08T22:55:22.473Z,13.90
2023-04-08T22:57:49.341Z,13.20
2023-04-08T23:00:15.991Z,13.73
2023-04-08T23:02:42.779Z,14.00
2023-04-08T23:05:09.587Z,14.00
2023-04-08T23:07:36.321Z,13.47
2023-04-08T23:10:02.703Z,12.53
2023-04-08T23:12:29.163Z,15.07
2023-04-08T23:14:55.618Z,14.53
2023-04-08T23:17:22.043Z,14.67
2023-04-08T23:19:48.455Z,14.30
2023-04-08T23:22:14.825Z,14.40
2023-04-08T23:24:41.288Z,13.83
2023-04-08T23:27:07.721Z,14.70
2023-04-08T23:29:34.336Z,14.67
2023-04-08T23:32:00.744Z,14.63
2023-04-08T23:34:27.314Z,12.97
2023-04-08T23:36:53.707Z,13.33
2023-04-08T23:39:20.304Z,14.40
2023-04-08T23:41:46.724Z,14.17
2023-04-08T23:44:13.132Z,14.60
2023-04-08T23:46:39.529Z,13.23
2023-04-08T23:49:06.252Z,13.13
2023-04-08T23:51:32.623Z,13.57
2023-04-08T23:53:59.343Z,13.40
2023-04-08T23:56:25.873Z,12.90
2023-04-08T23:58:52.383Z,14.63
